sensor_id;sensor_type;location;lat;lon;timestamp;P1;durP1;ratioP1;P2;durP2;ratioP2
33150;SDS011;19508;42.578;23.416;2022-10-26T00:01:25;20.63;;;6.30;;
33150;SDS011;19508;42.578;23.416;2022-10-26T00:03:50;28.85;;;7.63;;
33150;SDS011;19508;42.578;23.416;2022-10-26T00:06:19;24.40;;;6.68;;
33150;SDS011;19508;42.578;23.416;2022-10-26T00:08:50;25.67;;;6.68;;
33150;SDS011;19508;42.578;23.416;2022-10-26T00:11:16;27.05;;;6.30;;
33150;SDS011;19508;42.578;23.416;2022-10-26T00:13:43;24.85;;;6.60;;
33150;SDS011;19508;42.578;23.416;2022-10-26T00:16:10;17.23;;;6.95;;
33150;SDS011;19508;42.578;23.416;2022-10-26T00:18:38;25.85;;;7.40;;
33150;SDS011;19508;42.578;23.416;2022-10-26T00:21:04;30.58;;;6.80;;
33150;SDS011;19508;42.578;23.416;2022-10-26T00:23:30;20.10;;;6.47;;
33150;SDS011;19508;42.578;23.416;2022-10-26T00:25:56;27.98;;;6.47;;
33150;SDS011;19508;42.578;23.416;2022-10-26T00:28:22;22.63;;;6.68;;
33150;SDS011;19508;42.578;23.416;2022-10-26T00:30:47;38.47;;;7.38;;
33150;SDS011;19508;42.578;23.416;2022-10-26T00:33:13;33.17;;;7.90;;
33150;SDS011;19508;42.578;23.416;2022-10-26T00:35:38;20.27;;;5.78;;
33150;SDS011;19508;42.578;23.416;2022-10-26T00:38:04;33.63;;;7.07;;
33150;SDS011;19508;42.578;23.416;2022-10-26T00:40:29;20.70;;;7.13;;
33150;SDS011;19508;42.578;23.416;2022-10-26T00:42:55;21.17;;;5.80;;
33150;SDS011;19508;42.578;23.416;2022-10-26T00:45:25;15.68;;;5.63;;
33150;SDS011;19508;42.578;23.416;2022-10-26T00:50:59;21.20;;;6.10;;
33150;SDS011;19508;42.578;23.416;2022-10-26T00:53:18;22.10;;;6.25;;
33150;SDS011;19508;42.578;23.416;2022-10-26T00:55:44;23.05;;;5.85;;
33150;SDS011;19508;42.578;23.416;2022-10-26T00:58:13;17.60;;;6.05;;
33150;SDS011;19508;42.578;23.416;2022-10-26T01:00:40;20.15;;;5.93;;
33150;SDS011;19508;42.578;23.416;2022-10-26T01:03:07;23.45;;;6.88;;
33150;SDS011;19508;42.578;23.416;2022-10-26T01:05:35;17.42;;;6.32;;
33150;SDS011;19508;42.578;23.416;2022-10-26T01:08:04;14.23;;;6.20;;
33150;SDS011;19508;42.578;23.416;2022-10-26T01:10:30;14.50;;;5.95;;
33150;SDS011;19508;42.578;23.416;2022-10-26T01:12:56;21.88;;;6.25;;
33150;SDS011;19508;42.578;23.416;2022-10-26T01:15:23;17.67;;;6.13;;
33150;SDS011;19508;42.578;23.416;2022-10-26T01:18:01;15.43;;;5.75;;
33150;SDS011;19508;42.578;23.416;2022-10-26T01:20:55;22.20;;;6.43;;
33150;SDS011;19508;42.578;23.416;2022-10-26T01:23:27;15.15;;;5.55;;
33150;SDS011;19508;42.578;23.416;2022-10-26T01:26:07;23.33;;;5.82;;
33150;SDS011;19508;42.578;23.416;2022-10-26T01:31:23;13.23;;;5.68;;
33150;SDS011;19508;42.578;23.416;2022-10-26T01:34:00;22.90;;;5.78;;
33150;SDS011;19508;42.578;23.416;2022-10-26T01:36:31;15.65;;;5.65;;
33150;SDS011;19508;42.578;23.416;2022-10-26T01:39:14;14.07;;;5.38;;
33150;SDS011;19508;42.578;23.416;2022-10-26T01:41:49;18.02;;;6.57;;
33150;SDS011;19508;42.578;23.416;2022-10-26T01:47:03;16.33;;;6.20;;
33150;SDS011;19508;42.578;23.416;2022-10-26T01:49:32;14.50;;;5.53;;
33150;SDS011;19508;42.578;23.416;2022-10-26T01:52:07;16.17;;;4.90;;
33150;SDS011;19508;42.578;23.416;2022-10-26T01:54:34;15.85;;;4.88;;
33150;SDS011;19508;42.578;23.416;2022-10-26T01:57:01;19.25;;;5.82;;
33150;SDS011;19508;42.578;23.416;2022-10-26T02:07:46;22.30;;;5.50;;
33150;SDS011;19508;42.578;23.416;2022-10-26T02:10:41;19.40;;;5.13;;
33150;SDS011;19508;42.578;23.416;2022-10-26T02:13:38;21.25;;;5.95;;
33150;SDS011;19508;42.578;23.416;2022-10-26T02:16:16;27.38;;;6.07;;
33150;SDS011;19508;42.578;23.416;2022-10-26T02:21:36;18.48;;;5.50;;
33150;SDS011;19508;42.578;23.416;2022-10-26T02:24:06;29.58;;;6.20;;
33150;SDS011;19508;42.578;23.416;2022-10-26T02:26:34;10.07;;;5.20;;
33150;SDS011;19508;42.578;23.416;2022-10-26T02:29:03;16.98;;;6.28;;
33150;SDS011;19508;42.578;23.416;2022-10-26T02:31:33;13.68;;;5.93;;
33150;SDS011;19508;42.578;23.416;2022-10-26T02:34:01;10.57;;;5.38;;
33150;SDS011;19508;42.578;23.416;2022-10-26T02:36:31;16.88;;;5.25;;
33150;SDS011;19508;42.578;23.416;2022-10-26T02:39:00;13.38;;;5.00;;
33150;SDS011;19508;42.578;23.416;2022-10-26T02:41:28;13.93;;;4.55;;
33150;SDS011;19508;42.578;23.416;2022-10-26T02:44:02;11.85;;;5.55;;
33150;SDS011;19508;42.578;23.416;2022-10-26T02:46:32;23.77;;;4.90;;
33150;SDS011;19508;42.578;23.416;2022-10-26T02:48:58;24.48;;;4.88;;
33150;SDS011;19508;42.578;23.416;2022-10-26T02:57:01;17.30;;;3.97;;
33150;SDS011;19508;42.578;23.416;2022-10-26T02:59:29;17.08;;;4.60;;
33150;SDS011;19508;42.578;23.416;2022-10-26T03:02:06;17.35;;;5.43;;
33150;SDS011;19508;42.578;23.416;2022-10-26T03:04:32;15.23;;;4.43;;
33150;SDS011;19508;42.578;23.416;2022-10-26T03:06:59;24.33;;;4.78;;
33150;SDS011;19508;42.578;23.416;2022-10-26T03:09:25;15.38;;;4.50;;
33150;SDS011;19508;42.578;23.416;2022-10-26T03:11:52;15.23;;;3.60;;
33150;SDS011;19508;42.578;23.416;2022-10-26T03:14:17;18.73;;;5.13;;
33150;SDS011;19508;42.578;23.416;2022-10-26T03:16:43;23.27;;;4.80;;
33150;SDS011;19508;42.578;23.416;2022-10-26T03:19:08;17.00;;;5.00;;
33150;SDS011;19508;42.578;23.416;2022-10-26T03:21:34;10.18;;;4.15;;
33150;SDS011;19508;42.578;23.416;2022-10-26T03:23:59;16.90;;;4.72;;
33150;SDS011;19508;42.578;23.416;2022-10-26T03:26:25;12.80;;;5.35;;
33150;SDS011;19508;42.578;23.416;2022-10-26T03:28:50;8.30;;;4.60;;
33150;SDS011;19508;42.578;23.416;2022-10-26T03:31:15;19.65;;;4.80;;
33150;SDS011;19508;42.578;23.416;2022-10-26T03:33:41;24.67;;;5.55;;
33150;SDS011;19508;42.578;23.416;2022-10-26T03:36:06;14.27;;;4.75;;
33150;SDS011;19508;42.578;23.416;2022-10-26T03:38:32;16.90;;;5.47;;
33150;SDS011;19508;42.578;23.416;2022-10-26T03:40:58;17.95;;;5.35;;
33150;SDS011;19508;42.578;23.416;2022-10-26T03:43:23;17.38;;;5.07;;
33150;SDS011;19508;42.578;23.416;2022-10-26T03:45:49;14.85;;;5.57;;
33150;SDS011;19508;42.578;23.416;2022-10-26T03:48:14;22.73;;;5.65;;
33150;SDS011;19508;42.578;23.416;2022-10-26T03:50:40;18.45;;;4.93;;
33150;SDS011;19508;42.578;23.416;2022-10-26T03:53:06;16.48;;;4.88;;
33150;SDS011;19508;42.578;23.416;2022-10-26T03:55:32;21.23;;;5.50;;
33150;SDS011;19508;42.578;23.416;2022-10-26T03:57:57;12.57;;;4.88;;
33150;SDS011;19508;42.578;23.416;2022-10-26T04:00:23;21.17;;;5.80;;
33150;SDS011;19508;42.578;23.416;2022-10-26T04:02:55;21.02;;;6.47;;
33150;SDS011;19508;42.578;23.416;2022-10-26T04:05:23;20.00;;;5.03;;
33150;SDS011;19508;42.578;23.416;2022-10-26T04:07:53;15.50;;;5.63;;
33150;SDS011;19508;42.578;23.416;2022-10-26T04:10:19;34.33;;;5.93;;
33150;SDS011;19508;42.578;23.416;2022-10-26T04:12:45;9.98;;;5.13;;
33150;SDS011;19508;42.578;23.416;2022-10-26T04:15:10;13.93;;;5.50;;
33150;SDS011;19508;42.578;23.416;2022-10-26T04:17:36;16.70;;;6.10;;
33150;SDS011;19508;42.578;23.416;2022-10-26T04:20:01;14.88;;;5.82;;
33150;SDS011;19508;42.578;23.416;2022-10-26T04:22:27;12.10;;;5.30;;
33150;SDS011;19508;42.578;23.416;2022-10-26T04:24:52;22.73;;;5.95;;
33150;SDS011;19508;42.578;23.416;2022-10-26T04:27:17;16.00;;;4.97;;
33150;SDS011;19508;42.578;23.416;2022-10-26T04:29:43;24.80;;;5.75;;
33150;SDS011;19508;42.578;23.416;2022-10-26T04:32:08;21.67;;;5.35;;
33150;SDS011;19508;42.578;23.416;2022-10-26T04:34:33;19.70;;;6.18;;
33150;SDS011;19508;42.578;23.416;2022-10-26T04:36:59;20.88;;;5.53;;
33150;SDS011;19508;42.578;23.416;2022-10-26T04:39:24;20.08;;;5.60;;
33150;SDS011;19508;42.578;23.416;2022-10-26T04:41:50;22.65;;;6.03;;
33150;SDS011;19508;42.578;23.416;2022-10-26T04:44:15;30.13;;;8.32;;
33150;SDS011;19508;42.578;23.416;2022-10-26T04:46:41;31.25;;;6.38;;
33150;SDS011;19508;42.578;23.416;2022-10-26T04:49:06;28.60;;;8.50;;
33150;SDS011;19508;42.578;23.416;2022-10-26T04:51:31;20.92;;;6.50;;
33150;SDS011;19508;42.578;23.416;2022-10-26T04:53:57;42.28;;;6.10;;
33150;SDS011;19508;42.578;23.416;2022-10-26T04:56:22;36.00;;;8.20;;
33150;SDS011;19508;42.578;23.416;2022-10-26T04:58:48;29.13;;;6.07;;
33150;SDS011;19508;42.578;23.416;2022-10-26T05:01:13;32.47;;;6.28;;
33150;SDS011;19508;42.578;23.416;2022-10-26T05:03:39;20.45;;;6.85;;
33150;SDS011;19508;42.578;23.416;2022-10-26T05:06:04;17.08;;;7.82;;
33150;SDS011;19508;42.578;23.416;2022-10-26T05:08:30;20.17;;;6.97;;
33150;SDS011;19508;42.578;23.416;2022-10-26T05:10:55;45.75;;;8.82;;
33150;SDS011;19508;42.578;23.416;2022-10-26T05:13:21;39.30;;;7.40;;
33150;SDS011;19508;42.578;23.416;2022-10-26T05:15:46;26.10;;;6.47;;
33150;SDS011;19508;42.578;23.416;2022-10-26T05:18:12;26.67;;;6.90;;
33150;SDS011;19508;42.578;23.416;2022-10-26T05:20:37;19.27;;;6.30;;
33150;SDS011;19508;42.578;23.416;2022-10-26T05:23:03;26.88;;;6.68;;
33150;SDS011;19508;42.578;23.416;2022-10-26T05:25:33;31.40;;;6.30;;
33150;SDS011;19508;42.578;23.416;2022-10-26T05:28:00;17.88;;;6.03;;
33150;SDS011;19508;42.578;23.416;2022-10-26T05:30:28;20.63;;;6.85;;
33150;SDS011;19508;42.578;23.416;2022-10-26T05:32:55;23.23;;;7.18;;
33150;SDS011;19508;42.578;23.416;2022-10-26T05:35:22;20.05;;;8.70;;
33150;SDS011;19508;42.578;23.416;2022-10-26T05:37:49;45.70;;;9.77;;
33150;SDS011;19508;42.578;23.416;2022-10-26T05:40:15;45.70;;;10.20;;
33150;SDS011;19508;42.578;23.416;2022-10-26T05:42:41;27.58;;;9.30;;
33150;SDS011;19508;42.578;23.416;2022-10-26T05:45:07;28.98;;;10.00;;
33150;SDS011;19508;42.578;23.416;2022-10-26T05:47:40;27.50;;;8.50;;
33150;SDS011;19508;42.578;23.416;2022-10-26T05:50:07;17.65;;;7.72;;
33150;SDS011;19508;42.578;23.416;2022-10-26T05:52:37;23.13;;;7.82;;
33150;SDS011;19508;42.578;23.416;2022-10-26T05:55:06;21.25;;;6.97;;
33150;SDS011;19508;42.578;23.416;2022-10-26T05:57:33;22.15;;;7.22;;
33150;SDS011;19508;42.578;23.416;2022-10-26T05:59:59;16.35;;;6.55;;
33150;SDS011;19508;42.578;23.416;2022-10-26T06:02:28;21.33;;;7.05;;
33150;SDS011;19508;42.578;23.416;2022-10-26T06:05:03;27.27;;;6.38;;
33150;SDS011;19508;42.578;23.416;2022-10-26T06:07:29;23.25;;;7.20;;
33150;SDS011;19508;42.578;23.416;2022-10-26T06:09:55;11.90;;;5.22;;
33150;SDS011;19508;42.578;23.416;2022-10-26T06:12:21;13.40;;;5.28;;
33150;SDS011;19508;42.578;23.416;2022-10-26T06:14:47;19.65;;;5.53;;
33150;SDS011;19508;42.578;23.416;2022-10-26T06:23:23;22.58;;;5.05;;
33150;SDS011;19508;42.578;23.416;2022-10-26T06:31:35;16.40;;;4.90;;
33150;SDS011;19508;42.578;23.416;2022-10-26T06:34:01;18.45;;;5.25;;
33150;SDS011;19508;42.578;23.416;2022-10-26T06:36:27;13.07;;;4.32;;
33150;SDS011;19508;42.578;23.416;2022-10-26T06:39:08;19.13;;;4.85;;
33150;SDS011;19508;42.578;23.416;2022-10-26T06:41:36;14.38;;;5.25;;
33150;SDS011;19508;42.578;23.416;2022-10-26T06:44:03;16.92;;;4.85;;
33150;SDS011;19508;42.578;23.416;2022-10-26T06:46:36;18.38;;;5.18;;
33150;SDS011;19508;42.578;23.416;2022-10-26T06:49:19;13.55;;;5.53;;
33150;SDS011;19508;42.578;23.416;2022-10-26T06:54:51;18.75;;;5.03;;
33150;SDS011;19508;42.578;23.416;2022-10-26T06:57:22;11.38;;;4.30;;
33150;SDS011;19508;42.578;23.416;2022-10-26T07:02:47;18.02;;;4.63;;
33150;SDS011;19508;42.578;23.416;2022-10-26T07:05:13;13.73;;;4.75;;
33150;SDS011;19508;42.578;23.416;2022-10-26T07:07:42;13.23;;;4.95;;
33150;SDS011;19508;42.578;23.416;2022-10-26T07:10:12;12.45;;;4.63;;
33150;SDS011;19508;42.578;23.416;2022-10-26T07:12:38;12.13;;;4.63;;
33150;SDS011;19508;42.578;23.416;2022-10-26T07:15:04;13.45;;;4.30;;
33150;SDS011;19508;42.578;23.416;2022-10-26T07:17:30;15.90;;;5.30;;
33150;SDS011;19508;42.578;23.416;2022-10-26T07:19:56;16.27;;;5.50;;
33150;SDS011;19508;42.578;23.416;2022-10-26T07:22:22;21.70;;;5.18;;
33150;SDS011;19508;42.578;23.416;2022-10-26T07:24:49;17.63;;;5.38;;
33150;SDS011;19508;42.578;23.416;2022-10-26T07:27:15;13.65;;;6.05;;
33150;SDS011;19508;42.578;23.416;2022-10-26T07:29:44;19.73;;;6.15;;
33150;SDS011;19508;42.578;23.416;2022-10-26T07:32:09;19.48;;;6.50;;
33150;SDS011;19508;42.578;23.416;2022-10-26T07:34:35;18.60;;;5.97;;
33150;SDS011;19508;42.578;23.416;2022-10-26T07:37:03;13.70;;;6.28;;
33150;SDS011;19508;42.578;23.416;2022-10-26T07:39:28;24.27;;;6.20;;
33150;SDS011;19508;42.578;23.416;2022-10-26T07:41:56;15.68;;;6.22;;
33150;SDS011;19508;42.578;23.416;2022-10-26T07:44:22;27.90;;;6.75;;
33150;SDS011;19508;42.578;23.416;2022-10-26T07:46:48;23.33;;;6.47;;
33150;SDS011;19508;42.578;23.416;2022-10-26T07:49:13;23.73;;;6.22;;
33150;SDS011;19508;42.578;23.416;2022-10-26T07:51:38;17.25;;;6.35;;
33150;SDS011;19508;42.578;23.416;2022-10-26T07:54:04;21.23;;;6.63;;
33150;SDS011;19508;42.578;23.416;2022-10-26T07:56:29;13.93;;;6.55;;
33150;SDS011;19508;42.578;23.416;2022-10-26T07:58:55;21.15;;;6.95;;
33150;SDS011;19508;42.578;23.416;2022-10-26T08:01:22;26.58;;;6.25;;
33150;SDS011;19508;42.578;23.416;2022-10-26T08:03:50;20.85;;;6.28;;
33150;SDS011;19508;42.578;23.416;2022-10-26T08:06:16;11.98;;;6.53;;
33150;SDS011;19508;42.578;23.416;2022-10-26T08:08:41;18.00;;;6.40;;
33150;SDS011;19508;42.578;23.416;2022-10-26T08:11:07;19.77;;;6.53;;
33150;SDS011;19508;42.578;23.416;2022-10-26T08:13:32;18.77;;;5.47;;
33150;SDS011;19508;42.578;23.416;2022-10-26T08:16:06;17.40;;;5.20;;
33150;SDS011;19508;42.578;23.416;2022-10-26T08:18:32;18.58;;;5.88;;
33150;SDS011;19508;42.578;23.416;2022-10-26T08:21:05;12.13;;;4.78;;
33150;SDS011;19508;42.578;23.416;2022-10-26T08:23:33;18.05;;;4.78;;
33150;SDS011;19508;42.578;23.416;2022-10-26T08:25:59;15.60;;;4.45;;
33150;SDS011;19508;42.578;23.416;2022-10-26T08:28:26;11.10;;;3.97;;
33150;SDS011;19508;42.578;23.416;2022-10-26T08:30:53;14.18;;;5.28;;
33150;SDS011;19508;42.578;23.416;2022-10-26T08:33:19;12.95;;;4.90;;
33150;SDS011;19508;42.578;23.416;2022-10-26T08:35:44;16.58;;;4.03;;
33150;SDS011;19508;42.578;23.416;2022-10-26T08:38:10;13.20;;;4.07;;
33150;SDS011;19508;42.578;23.416;2022-10-26T08:40:37;12.50;;;3.50;;
33150;SDS011;19508;42.578;23.416;2022-10-26T08:43:15;10.10;;;2.65;;
33150;SDS011;19508;42.578;23.416;2022-10-26T08:48:26;21.55;;;3.55;;
33150;SDS011;19508;42.578;23.416;2022-10-26T08:50:58;14.50;;;3.53;;
33150;SDS011;19508;42.578;23.416;2022-10-26T08:56:14;3.83;;;1.35;;
33150;SDS011;19508;42.578;23.416;2022-10-26T08:58:50;4.40;;;1.55;;
33150;SDS011;19508;42.578;23.416;2022-10-26T09:01:19;6.75;;;1.40;;
33150;SDS011;19508;42.578;23.416;2022-10-26T09:03:45;4.90;;;1.65;;
33150;SDS011;19508;42.578;23.416;2022-10-26T09:06:54;3.95;;;2.13;;
33150;SDS011;19508;42.578;23.416;2022-10-26T09:09:19;9.07;;;2.00;;
33150;SDS011;19508;42.578;23.416;2022-10-26T09:29:30;22.90;;;3.10;;
33150;SDS011;19508;42.578;23.416;2022-10-26T09:32:02;13.90;;;2.67;;
33150;SDS011;19508;42.578;23.416;2022-10-26T09:34:31;14.65;;;2.17;;
33150;SDS011;19508;42.578;23.416;2022-10-26T09:37:14;11.43;;;2.63;;
33150;SDS011;19508;42.578;23.416;2022-10-26T09:42:48;6.75;;;1.90;;
33150;SDS011;19508;42.578;23.416;2022-10-26T09:52:55;12.50;;;2.50;;
33150;SDS011;19508;42.578;23.416;2022-10-26T09:55:20;10.80;;;2.65;;
33150;SDS011;19508;42.578;23.416;2022-10-26T09:57:47;6.80;;;2.45;;
33150;SDS011;19508;42.578;23.416;2022-10-26T10:00:20;6.00;;;2.47;;
33150;SDS011;19508;42.578;23.416;2022-10-26T10:02:55;16.17;;;2.58;;
33150;SDS011;19508;42.578;23.416;2022-10-26T10:07:53;10.98;;;2.40;;
33150;SDS011;19508;42.578;23.416;2022-10-26T10:10:53;11.77;;;2.90;;
33150;SDS011;19508;42.578;23.416;2022-10-26T10:13:33;8.38;;;2.53;;
33150;SDS011;19508;42.578;23.416;2022-10-26T10:18:29;11.23;;;2.50;;
33150;SDS011;19508;42.578;23.416;2022-10-26T10:20:56;9.88;;;2.83;;
33150;SDS011;19508;42.578;23.416;2022-10-26T10:23:33;13.95;;;3.03;;
33150;SDS011;19508;42.578;23.416;2022-10-26T10:28:28;12.27;;;3.60;;
33150;SDS011;19508;42.578;23.416;2022-10-26T10:30:55;14.15;;;3.08;;
33150;SDS011;19508;42.578;23.416;2022-10-26T10:33:31;7.57;;;2.65;;
33150;SDS011;19508;42.578;23.416;2022-10-26T10:36:08;7.55;;;2.28;;
33150;SDS011;19508;42.578;23.416;2022-10-26T10:38:47;6.88;;;2.35;;
33150;SDS011;19508;42.578;23.416;2022-10-26T10:41:16;6.90;;;2.45;;
33150;SDS011;19508;42.578;23.416;2022-10-26T10:43:49;10.25;;;2.63;;
33150;SDS011;19508;42.578;23.416;2022-10-26T10:46:20;14.48;;;2.85;;
33150;SDS011;19508;42.578;23.416;2022-10-26T10:48:50;17.60;;;2.47;;
33150;SDS011;19508;42.578;23.416;2022-10-26T10:51:25;7.03;;;2.47;;
33150;SDS011;19508;42.578;23.416;2022-10-26T10:53:55;8.68;;;2.80;;
33150;SDS011;19508;42.578;23.416;2022-10-26T11:01:53;10.02;;;2.85;;
33150;SDS011;19508;42.578;23.416;2022-10-26T11:04:52;18.20;;;2.88;;
33150;SDS011;19508;42.578;23.416;2022-10-26T11:07:23;7.45;;;2.78;;
33150;SDS011;19508;42.578;23.416;2022-10-26T11:09:51;10.32;;;2.90;;
33150;SDS011;19508;42.578;23.416;2022-10-26T11:12:32;10.10;;;2.50;;
33150;SDS011;19508;42.578;23.416;2022-10-26T11:15:06;14.68;;;2.80;;
33150;SDS011;19508;42.578;23.416;2022-10-26T11:17:55;11.52;;;2.65;;
33150;SDS011;19508;42.578;23.416;2022-10-26T11:20:42;5.25;;;2.53;;
33150;SDS011;19508;42.578;23.416;2022-10-26T11:23:24;10.90;;;3.00;;
33150;SDS011;19508;42.578;23.416;2022-10-26T11:31:06;7.25;;;3.25;;
33150;SDS011;19508;42.578;23.416;2022-10-26T11:33:42;11.45;;;2.75;;
33150;SDS011;19508;42.578;23.416;2022-10-26T11:36:13;13.65;;;3.10;;
33150;SDS011;19508;42.578;23.416;2022-10-26T11:38:44;14.18;;;2.90;;
33150;SDS011;19508;42.578;23.416;2022-10-26T11:43:52;7.88;;;3.58;;
33150;SDS011;19508;42.578;23.416;2022-10-26T11:51:46;8.50;;;2.63;;
33150;SDS011;19508;42.578;23.416;2022-10-26T11:56:46;10.27;;;2.70;;
33150;SDS011;19508;42.578;23.416;2022-10-26T11:59:24;11.52;;;2.58;;
33150;SDS011;19508;42.578;23.416;2022-10-26T12:01:55;17.52;;;3.50;;
33150;SDS011;19508;42.578;23.416;2022-10-26T12:04:43;13.27;;;2.67;;
33150;SDS011;19508;42.578;23.416;2022-10-26T12:07:16;10.45;;;2.60;;
33150;SDS011;19508;42.578;23.416;2022-10-26T12:09:47;23.10;;;3.05;;
33150;SDS011;19508;42.578;23.416;2022-10-26T12:12:16;12.98;;;2.80;;
33150;SDS011;19508;42.578;23.416;2022-10-26T12:14:59;5.78;;;2.70;;
33150;SDS011;19508;42.578;23.416;2022-10-26T12:17:34;11.40;;;2.53;;
33150;SDS011;19508;42.578;23.416;2022-10-26T12:22:38;7.90;;;2.65;;
33150;SDS011;19508;42.578;23.416;2022-10-26T12:35:02;9.70;;;2.15;;
33150;SDS011;19508;42.578;23.416;2022-10-26T12:37:48;10.95;;;2.65;;
33150;SDS011;19508;42.578;23.416;2022-10-26T12:42:54;7.60;;;1.73;;
33150;SDS011;19508;42.578;23.416;2022-10-26T12:45:20;5.10;;;1.67;;
33150;SDS011;19508;42.578;23.416;2022-10-26T12:52:52;3.40;;;1.45;;
33150;SDS011;19508;42.578;23.416;2022-10-26T12:55:54;10.02;;;1.30;;
33150;SDS011;19508;42.578;23.416;2022-10-26T13:06:40;8.38;;;2.00;;
33150;SDS011;19508;42.578;23.416;2022-10-26T13:09:22;6.03;;;1.80;;
33150;SDS011;19508;42.578;23.416;2022-10-26T13:11:51;5.25;;;1.38;;
33150;SDS011;19508;42.578;23.416;2022-10-26T13:14:22;6.43;;;1.45;;
33150;SDS011;19508;42.578;23.416;2022-10-26T13:16:49;6.82;;;1.17;;
33150;SDS011;19508;42.578;23.416;2022-10-26T13:22:19;12.55;;;1.30;;
33150;SDS011;19508;42.578;23.416;2022-10-26T13:25:02;2.75;;;1.20;;
33150;SDS011;19508;42.578;23.416;2022-10-26T13:30:20;4.15;;;0.80;;
33150;SDS011;19508;42.578;23.416;2022-10-26T13:32:50;7.82;;;1.33;;
33150;SDS011;19508;42.578;23.416;2022-10-26T13:35:18;10.75;;;0.98;;
33150;SDS011;19508;42.578;23.416;2022-10-26T13:37:47;1.80;;;1.00;;
33150;SDS011;19508;42.578;23.416;2022-10-26T13:40:16;3.25;;;0.93;;
33150;SDS011;19508;42.578;23.416;2022-10-26T13:42:50;5.88;;;1.25;;
33150;SDS011;19508;42.578;23.416;2022-10-26T13:45:26;7.72;;;1.45;;
33150;SDS011;19508;42.578;23.416;2022-10-26T13:50:31;3.53;;;1.02;;
33150;SDS011;19508;42.578;23.416;2022-10-26T13:53:21;7.45;;;1.48;;
33150;SDS011;19508;42.578;23.416;2022-10-26T13:58:57;5.97;;;1.23;;
33150;SDS011;19508;42.578;23.416;2022-10-26T14:01:26;2.63;;;0.97;;
33150;SDS011;19508;42.578;23.416;2022-10-26T14:03:52;2.45;;;1.10;;
33150;SDS011;19508;42.578;23.416;2022-10-26T14:06:25;6.93;;;1.00;;
33150;SDS011;19508;42.578;23.416;2022-10-26T14:09:03;2.80;;;1.17;;
33150;SDS011;19508;42.578;23.416;2022-10-26T14:12:13;12.25;;;1.50;;
33150;SDS011;19508;42.578;23.416;2022-10-26T14:14:27;6.00;;;0.98;;
33150;SDS011;19508;42.578;23.416;2022-10-26T14:16:55;6.28;;;1.13;;
33150;SDS011;19508;42.578;23.416;2022-10-26T14:19:32;7.53;;;1.33;;
33150;SDS011;19508;42.578;23.416;2022-10-26T14:22:00;3.38;;;1.85;;
33150;SDS011;19508;42.578;23.416;2022-10-26T14:24:36;15.15;;;1.35;;
33150;SDS011;19508;42.578;23.416;2022-10-26T14:27:13;3.97;;;1.10;;
33150;SDS011;19508;42.578;23.416;2022-10-26T14:29:40;8.35;;;1.20;;
33150;SDS011;19508;42.578;23.416;2022-10-26T14:32:22;4.43;;;1.33;;
33150;SDS011;19508;42.578;23.416;2022-10-26T14:34:52;6.97;;;1.45;;
33150;SDS011;19508;42.578;23.416;2022-10-26T14:37:23;6.38;;;1.50;;
33150;SDS011;19508;42.578;23.416;2022-10-26T14:39:55;5.53;;;1.42;;
33150;SDS011;19508;42.578;23.416;2022-10-26T14:42:28;12.10;;;1.65;;
33150;SDS011;19508;42.578;23.416;2022-10-26T14:44:57;4.07;;;1.70;;
33150;SDS011;19508;42.578;23.416;2022-10-26T14:47:26;21.88;;;2.72;;
33150;SDS011;19508;42.578;23.416;2022-10-26T14:49:54;12.52;;;1.85;;
33150;SDS011;19508;42.578;23.416;2022-10-26T14:52:22;12.57;;;2.33;;
33150;SDS011;19508;42.578;23.416;2022-10-26T14:54:59;13.45;;;1.63;;
33150;SDS011;19508;42.578;23.416;2022-10-26T14:57:37;13.10;;;5.13;;
33150;SDS011;19508;42.578;23.416;2022-10-26T15:00:10;11.32;;;4.28;;
33150;SDS011;19508;42.578;23.416;2022-10-26T15:02:48;7.32;;;1.45;;
33150;SDS011;19508;42.578;23.416;2022-10-26T15:05:28;4.05;;;1.63;;
33150;SDS011;19508;42.578;23.416;2022-10-26T15:07:56;9.82;;;1.50;;
33150;SDS011;19508;42.578;23.416;2022-10-26T15:15:53;15.18;;;5.18;;
33150;SDS011;19508;42.578;23.416;2022-10-26T15:20:56;15.85;;;3.67;;
33150;SDS011;19508;42.578;23.416;2022-10-26T15:23:25;15.57;;;4.55;;
33150;SDS011;19508;42.578;23.416;2022-10-26T15:25:56;12.20;;;2.88;;
33150;SDS011;19508;42.578;23.416;2022-10-26T15:28:36;15.57;;;2.72;;
33150;SDS011;19508;42.578;23.416;2022-10-26T15:31:05;30.50;;;2.80;;
33150;SDS011;19508;42.578;23.416;2022-10-26T15:36:21;18.52;;;2.45;;
33150;SDS011;19508;42.578;23.416;2022-10-26T15:38:49;10.35;;;2.15;;
33150;SDS011;19508;42.578;23.416;2022-10-26T15:43:50;56.58;;;4.80;;
33150;SDS011;19508;42.578;23.416;2022-10-26T15:46:17;70.50;;;18.52;;
33150;SDS011;19508;42.578;23.416;2022-10-26T15:48:45;28.02;;;5.00;;
33150;SDS011;19508;42.578;23.416;2022-10-26T15:51:18;12.75;;;3.63;;
33150;SDS011;19508;42.578;23.416;2022-10-26T15:53:44;19.23;;;3.50;;
33150;SDS011;19508;42.578;23.416;2022-10-26T15:56:14;17.67;;;3.58;;
33150;SDS011;19508;42.578;23.416;2022-10-26T15:58:45;12.13;;;2.70;;
33150;SDS011;19508;42.578;23.416;2022-10-26T16:01:15;19.13;;;2.72;;
33150;SDS011;19508;42.578;23.416;2022-10-26T16:03:41;23.58;;;4.70;;
33150;SDS011;19508;42.578;23.416;2022-10-26T16:06:07;35.88;;;7.40;;
33150;SDS011;19508;42.578;23.416;2022-10-26T16:08:37;19.60;;;6.43;;
33150;SDS011;19508;42.578;23.416;2022-10-26T16:11:03;17.60;;;6.80;;
33150;SDS011;19508;42.578;23.416;2022-10-26T16:13:29;20.02;;;5.38;;
33150;SDS011;19508;42.578;23.416;2022-10-26T16:15:54;36.97;;;6.53;;
33150;SDS011;19508;42.578;23.416;2022-10-26T16:18:20;20.48;;;8.77;;
33150;SDS011;19508;42.578;23.416;2022-10-26T16:20:45;27.90;;;9.07;;
33150;SDS011;19508;42.578;23.416;2022-10-26T16:23:11;20.63;;;9.10;;
33150;SDS011;19508;42.578;23.416;2022-10-26T16:25:41;19.55;;;9.13;;
33150;SDS011;19508;42.578;23.416;2022-10-26T16:30:34;31.52;;;10.82;;
33150;SDS011;19508;42.578;23.416;2022-10-26T16:33:00;35.30;;;19.00;;
33150;SDS011;19508;42.578;23.416;2022-10-26T16:35:26;92.90;;;32.92;;
33150;SDS011;19508;42.578;23.416;2022-10-26T16:37:52;42.95;;;19.27;;
33150;SDS011;19508;42.578;23.416;2022-10-26T16:40:17;42.25;;;17.73;;
33150;SDS011;19508;42.578;23.416;2022-10-26T16:42:43;25.63;;;9.68;;
33150;SDS011;19508;42.578;23.416;2022-10-26T16:45:12;36.85;;;6.57;;
33150;SDS011;19508;42.578;23.416;2022-10-26T16:47:39;9.32;;;4.30;;
33150;SDS011;19508;42.578;23.416;2022-10-26T16:50:09;22.17;;;4.07;;
33150;SDS011;19508;42.578;23.416;2022-10-26T16:52:36;18.80;;;3.63;;
33150;SDS011;19508;42.578;23.416;2022-10-26T16:55:03;11.23;;;3.20;;
33150;SDS011;19508;42.578;23.416;2022-10-26T16:57:30;19.40;;;5.78;;
33150;SDS011;19508;42.578;23.416;2022-10-26T16:59:55;10.38;;;4.90;;
33150;SDS011;19508;42.578;23.416;2022-10-26T17:02:23;7.28;;;4.32;;
33150;SDS011;19508;42.578;23.416;2022-10-26T17:04:49;7.45;;;4.28;;
33150;SDS011;19508;42.578;23.416;2022-10-26T17:07:14;8.45;;;4.13;;
33150;SDS011;19508;42.578;23.416;2022-10-26T17:09:39;14.45;;;6.10;;
33150;SDS011;19508;42.578;23.416;2022-10-26T17:12:05;16.65;;;5.63;;
33150;SDS011;19508;42.578;23.416;2022-10-26T17:14:31;20.17;;;5.15;;
33150;SDS011;19508;42.578;23.416;2022-10-26T17:16:56;16.27;;;5.50;;
33150;SDS011;19508;42.578;23.416;2022-10-26T17:19:22;13.60;;;6.25;;